sensor_id;sensor_type;location;lat;lon;timestamp;temperature;humidity
49184;DHT22;35021;49.214;12.270;2024-03-08T00:00:35;21.00;27.90
49184;DHT22;35021;49.214;12.270;2024-03-08T00:03:02;20.90;27.80
49184;DHT22;35021;49.214;12.270;2024-03-08T00:05:30;20.90;27.90
49184;DHT22;35021;49.214;12.270;2024-03-08T00:07:57;20.80;27.90
49184;DHT22;35021;49.214;12.270;2024-03-08T00:10:24;20.80;28.00
49184;DHT22;35021;49.214;12.270;2024-03-08T00:12:54;20.70;27.90
49184;DHT22;35021;49.214;12.270;2024-03-08T00:15:21;20.70;28.00
49184;DHT22;35021;49.214;12.270;2024-03-08T00:17:50;20.70;28.00
49184;DHT22;35021;49.214;12.270;2024-03-08T00:20:17;20.70;28.00
49184;DHT22;35021;49.214;12.270;2024-03-08T00:22:47;20.70;28.00
49184;DHT22;35021;49.214;12.270;2024-03-08T00:25:14;20.70;28.00
49184;DHT22;35021;49.214;12.270;2024-03-08T00:27:41;20.70;28.00
49184;DHT22;35021;49.214;12.270;2024-03-08T00:30:08;20.60;28.00
49184;DHT22;35021;49.214;12.270;2024-03-08T00:32:36;20.60;27.90
49184;DHT22;35021;49.214;12.270;2024-03-08T00:35:04;20.60;28.00
49184;DHT22;35021;49.214;12.270;2024-03-08T00:37:31;20.50;27.90
49184;DHT22;35021;49.214;12.270;2024-03-08T00:39:58;20.50;28.00
49184;DHT22;35021;49.214;12.270;2024-03-08T00:42:25;20.40;28.00
49184;DHT22;35021;49.214;12.270;2024-03-08T00:44:52;20.40;28.10
49184;DHT22;35021;49.214;12.270;2024-03-08T00:47:19;20.30;28.10
49184;DHT22;35021;49.214;12.270;2024-03-08T00:49:46;20.20;28.10
49184;DHT22;35021;49.214;12.270;2024-03-08T00:52:13;20.20;28.10
49184;DHT22;35021;49.214;12.270;2024-03-08T00:54:41;20.20;28.10
49184;DHT22;35021;49.214;12.270;2024-03-08T00:57:09;20.20;28.10
49184;DHT22;35021;49.214;12.270;2024-03-08T00:59:39;20.20;28.10
49184;DHT22;35021;49.214;12.270;2024-03-08T01:02:07;20.20;28.10
49184;DHT22;35021;49.214;12.270;2024-03-08T01:04:35;20.20;28.10
49184;DHT22;35021;49.214;12.270;2024-03-08T01:07:02;20.20;28.00
49184;DHT22;35021;49.214;12.270;2024-03-08T01:09:29;20.20;28.00
49184;DHT22;35021;49.214;12.270;2024-03-08T01:11:56;20.20;28.00
49184;DHT22;35021;49.214;12.270;2024-03-08T01:14:23;20.20;28.00
49184;DHT22;35021;49.214;12.270;2024-03-08T01:16:52;20.20;27.90
49184;DHT22;35021;49.214;12.270;2024-03-08T01:19:19;20.20;27.90
49184;DHT22;35021;49.214;12.270;2024-03-08T01:21:46;20.20;27.80
49184;DHT22;35021;49.214;12.270;2024-03-08T01:24:13;20.30;27.90
49184;DHT22;35021;49.214;12.270;2024-03-08T01:26:40;20.30;27.90
49184;DHT22;35021;49.214;12.270;2024-03-08T01:29:07;20.30;27.80
49184;DHT22;35021;49.214;12.270;2024-03-08T01:31:34;20.30;27.80
49184;DHT22;35021;49.214;12.270;2024-03-08T01:34:03;20.30;27.80
49184;DHT22;35021;49.214;12.270;2024-03-08T01:36:30;20.30;27.80
49184;DHT22;35021;49.214;12.270;2024-03-08T01:38:57;20.30;27.80
49184;DHT22;35021;49.214;12.270;2024-03-08T01:41:24;20.30;27.80
49184;DHT22;35021;49.214;12.270;2024-03-08T01:43:51;20.30;27.80
49184;DHT22;35021;49.214;12.270;2024-03-08T01:46:20;20.40;27.90
49184;DHT22;35021;49.214;12.270;2024-03-08T01:48:49;20.40;27.80
49184;DHT22;35021;49.214;12.270;2024-03-08T01:51:18;20.40;27.80
49184;DHT22;35021;49.214;12.270;2024-03-08T01:53:46;20.40;27.90
49184;DHT22;35021;49.214;12.270;2024-03-08T01:56:13;20.40;27.90
49184;DHT22;35021;49.214;12.270;2024-03-08T01:58:43;20.40;27.80
49184;DHT22;35021;49.214;12.270;2024-03-08T02:01:11;20.40;27.70
49184;DHT22;35021;49.214;12.270;2024-03-08T02:03:38;20.40;27.70
49184;DHT22;35021;49.214;12.270;2024-03-08T02:06:05;20.40;27.70
49184;DHT22;35021;49.214;12.270;2024-03-08T02:08:35;20.40;27.60
49184;DHT22;35021;49.214;12.270;2024-03-08T02:11:03;20.50;27.70
49184;DHT22;35021;49.214;12.270;2024-03-08T02:13:30;20.40;27.60
49184;DHT22;35021;49.214;12.270;2024-03-08T02:15:58;20.40;27.60
49184;DHT22;35021;49.214;12.270;2024-03-08T02:18:29;20.40;27.60
49184;DHT22;35021;49.214;12.270;2024-03-08T02:20:57;20.40;27.60
49184;DHT22;35021;49.214;12.270;2024-03-08T02:23:25;20.40;27.60
49184;DHT22;35021;49.214;12.270;2024-03-08T02:25:53;20.40;27.60
49184;DHT22;35021;49.214;12.270;2024-03-08T02:28:20;20.30;27.60
49184;DHT22;35021;49.214;12.270;2024-03-08T02:30:47;20.30;27.60
49184;DHT22;35021;49.214;12.270;2024-03-08T02:33:15;20.30;27.70
49184;DHT22;35021;49.214;12.270;2024-03-08T02:35:45;20.30;27.70
49184;DHT22;35021;49.214;12.270;2024-03-08T02:38:14;20.30;27.70
49184;DHT22;35021;49.214;12.270;2024-03-08T02:40:44;20.40;27.60
49184;DHT22;35021;49.214;12.270;2024-03-08T02:43:12;20.50;27.60
49184;DHT22;35021;49.214;12.270;2024-03-08T02:45:39;20.60;27.50
49184;DHT22;35021;49.214;12.270;2024-03-08T02:48:06;20.70;27.40
49184;DHT22;35021;49.214;12.270;2024-03-08T02:50:33;20.80;27.40
49184;DHT22;35021;49.214;12.270;2024-03-08T02:53:01;20.90;27.30
49184;DHT22;35021;49.214;12.270;2024-03-08T02:55:28;20.90;27.20
49184;DHT22;35021;49.214;12.270;2024-03-08T02:57:56;21.10;27.70
49184;DHT22;35021;49.214;12.270;2024-03-08T03:00:23;21.10;27.00
49184;DHT22;35021;49.214;12.270;2024-03-08T03:02:50;21.10;26.90
49184;DHT22;35021;49.214;12.270;2024-03-08T03:05:21;21.10;26.90
49184;DHT22;35021;49.214;12.270;2024-03-08T03:07:48;21.00;26.90
49184;DHT22;35021;49.214;12.270;2024-03-08T03:10:18;20.90;26.90
49184;DHT22;35021;49.214;12.270;2024-03-08T03:12:45;20.80;27.00
49184;DHT22;35021;49.214;12.270;2024-03-08T03:15:12;20.70;27.00
49184;DHT22;35021;49.214;12.270;2024-03-08T03:17:40;20.60;27.10
49184;DHT22;35021;49.214;12.270;2024-03-08T03:20:08;20.60;27.20
49184;DHT22;35021;49.214;12.270;2024-03-08T03:22:40;20.60;27.30
49184;DHT22;35021;49.214;12.270;2024-03-08T03:25:08;20.60;27.90
49184;DHT22;35021;49.214;12.270;2024-03-08T03:27:36;20.70;27.40
49184;DHT22;35021;49.214;12.270;2024-03-08T03:30:04;20.70;27.90
49184;DHT22;35021;49.214;12.270;2024-03-08T03:32:50;20.70;27.30
49184;DHT22;35021;49.214;12.270;2024-03-08T03:35:21;20.80;27.30
49184;DHT22;35021;49.214;12.270;2024-03-08T03:37:49;20.90;27.30
49184;DHT22;35021;49.214;12.270;2024-03-08T03:40:41;20.90;27.20
49184;DHT22;35021;49.214;12.270;2024-03-08T03:43:08;21.00;27.30
49184;DHT22;35021;49.214;12.270;2024-03-08T03:45:36;21.00;27.20
49184;DHT22;35021;49.214;12.270;2024-03-08T03:48:04;21.00;27.10
49184;DHT22;35021;49.214;12.270;2024-03-08T03:50:34;21.00;27.10
49184;DHT22;35021;49.214;12.270;2024-03-08T03:53:02;20.90;27.10
49184;DHT22;35021;49.214;12.270;2024-03-08T03:55:29;20.90;27.20
49184;DHT22;35021;49.214;12.270;2024-03-08T03:57:56;20.90;27.20
49184;DHT22;35021;49.214;12.270;2024-03-08T04:00:26;20.90;27.20
49184;DHT22;35021;49.214;12.270;2024-03-08T04:02:54;20.90;27.10
49184;DHT22;35021;49.214;12.270;2024-03-08T04:05:22;20.90;27.10
49184;DHT22;35021;49.214;12.270;2024-03-08T04:07:49;20.90;27.00
49184;DHT22;35021;49.214;12.270;2024-03-08T04:10:15;21.00;26.90
49184;DHT22;35021;49.214;12.270;2024-03-08T04:12:42;21.00;26.80
49184;DHT22;35021;49.214;12.270;2024-03-08T04:15:10;21.10;26.80
49184;DHT22;35021;49.214;12.270;2024-03-08T04:17:38;21.10;26.80
49184;DHT22;35021;49.214;12.270;2024-03-08T04:20:05;21.10;26.70
49184;DHT22;35021;49.214;12.270;2024-03-08T04:22:37;21.10;26.70
49184;DHT22;35021;49.214;12.270;2024-03-08T04:25:04;21.10;26.70
49184;DHT22;35021;49.214;12.270;2024-03-08T04:27:32;21.10;26.80
49184;DHT22;35021;49.214;12.270;2024-03-08T04:30:00;21.10;26.90
49184;DHT22;35021;49.214;12.270;2024-03-08T04:32:29;21.00;26.90
49184;DHT22;35021;49.214;12.270;2024-03-08T04:35:00;20.90;27.00
49184;DHT22;35021;49.214;12.270;2024-03-08T04:37:29;20.80;27.10
49184;DHT22;35021;49.214;12.270;2024-03-08T04:39:56;20.80;27.10
49184;DHT22;35021;49.214;12.270;2024-03-08T04:42:23;20.80;27.10
49184;DHT22;35021;49.214;12.270;2024-03-08T04:44:52;20.80;27.10
49184;DHT22;35021;49.214;12.270;2024-03-08T04:47:20;20.80;27.10
49184;DHT22;35021;49.214;12.270;2024-03-08T04:49:47;20.80;27.00
49184;DHT22;35021;49.214;12.270;2024-03-08T04:52:14;20.90;27.00
49184;DHT22;35021;49.214;12.270;2024-03-08T04:54:41;20.90;26.90
49184;DHT22;35021;49.214;12.270;2024-03-08T04:57:08;21.00;26.70
49184;DHT22;35021;49.214;12.270;2024-03-08T04:59:35;21.00;26.70
49184;DHT22;35021;49.214;12.270;2024-03-08T05:02:03;21.00;26.80
49184;DHT22;35021;49.214;12.270;2024-03-08T05:04:30;21.00;26.80
49184;DHT22;35021;49.214;12.270;2024-03-08T05:06:57;20.90;26.80
49184;DHT22;35021;49.214;12.270;2024-03-08T05:09:26;20.90;26.80
49184;DHT22;35021;49.214;12.270;2024-03-08T05:11:55;20.80;26.90
49184;DHT22;35021;49.214;12.270;2024-03-08T05:14:25;20.70;27.00
49184;DHT22;35021;49.214;12.270;2024-03-08T05:16:52;20.70;27.10
49184;DHT22;35021;49.214;12.270;2024-03-08T05:19:19;20.60;27.10
49184;DHT22;35021;49.214;12.270;2024-03-08T05:21:47;20.60;27.20
49184;DHT22;35021;49.214;12.270;2024-03-08T05:24:15;20.60;27.20
49184;DHT22;35021;49.214;12.270;2024-03-08T05:26:43;20.60;27.10
49184;DHT22;35021;49.214;12.270;2024-03-08T05:29:10;20.60;27.10
49184;DHT22;35021;49.214;12.270;2024-03-08T05:31:50;20.70;27.00
49184;DHT22;35021;49.214;12.270;2024-03-08T05:34:17;20.70;26.90
49184;DHT22;35021;49.214;12.270;2024-03-08T05:36:46;20.80;26.90
49184;DHT22;35021;49.214;12.270;2024-03-08T05:39:13;20.80;26.80
49184;DHT22;35021;49.214;12.270;2024-03-08T05:41:44;20.90;26.80
49184;DHT22;35021;49.214;12.270;2024-03-08T05:44:11;20.90;26.80
49184;DHT22;35021;49.214;12.270;2024-03-08T05:46:38;20.90;26.80
49184;DHT22;35021;49.214;12.270;2024-03-08T05:49:06;20.90;26.90
49184;DHT22;35021;49.214;12.270;2024-03-08T05:51:33;20.80;26.90
49184;DHT22;35021;49.214;12.270;2024-03-08T05:54:03;20.80;27.00
49184;DHT22;35021;49.214;12.270;2024-03-08T05:56:33;20.70;26.90
49184;DHT22;35021;49.214;12.270;2024-03-08T05:59:00;20.70;26.90
49184;DHT22;35021;49.214;12.270;2024-03-08T06:01:28;20.70;26.90
49184;DHT22;35021;49.214;12.270;2024-03-08T06:03:55;20.70;26.80
49184;DHT22;35021;49.214;12.270;2024-03-08T06:06:23;20.70;26.80
49184;DHT22;35021;49.214;12.270;2024-03-08T06:08:51;20.80;26.80
49184;DHT22;35021;49.214;12.270;2024-03-08T06:11:18;20.90;26.80
49184;DHT22;35021;49.214;12.270;2024-03-08T06:13:46;20.90;26.70
49184;DHT22;35021;49.214;12.270;2024-03-08T06:16:13;21.00;26.70
49184;DHT22;35021;49.214;12.270;2024-03-08T06:18:40;21.00;26.60
49184;DHT22;35021;49.214;12.270;2024-03-08T06:21:08;21.10;26.60
49184;DHT22;35021;49.214;12.270;2024-03-08T06:23:39;21.10;26.60
49184;DHT22;35021;49.214;12.270;2024-03-08T06:26:06;21.10;26.50
49184;DHT22;35021;49.214;12.270;2024-03-08T06:28:34;21.10;26.60
49184;DHT22;35021;49.214;12.270;2024-03-08T06:31:03;21.10;26.60
49184;DHT22;35021;49.214;12.270;2024-03-08T06:33:30;21.00;26.60
49184;DHT22;35021;49.214;12.270;2024-03-08T06:35:59;21.00;26.70
49184;DHT22;35021;49.214;12.270;2024-03-08T06:38:26;20.90;26.70
49184;DHT22;35021;49.214;12.270;2024-03-08T06:40:53;20.90;26.90
49184;DHT22;35021;49.214;12.270;2024-03-08T06:43:21;20.90;26.90
49184;DHT22;35021;49.214;12.270;2024-03-08T06:45:48;20.90;27.00
49184;DHT22;35021;49.214;12.270;2024-03-08T06:48:16;20.90;27.00
49184;DHT22;35021;49.214;12.270;2024-03-08T06:50:47;20.90;27.00
49184;DHT22;35021;49.214;12.270;2024-03-08T06:53:14;20.90;26.90
49184;DHT22;35021;49.214;12.270;2024-03-08T06:55:44;21.00;26.90
49184;DHT22;35021;49.214;12.270;2024-03-08T06:58:11;21.00;26.90
49184;DHT22;35021;49.214;12.270;2024-03-08T07:00:38;21.00;26.90
49184;DHT22;35021;49.214;12.270;2024-03-08T07:03:07;21.10;27.00
49184;DHT22;35021;49.214;12.270;2024-03-08T07:05:34;21.10;27.10
49184;DHT22;35021;49.214;12.270;2024-03-08T07:08:02;21.10;27.10
49184;DHT22;35021;49.214;12.270;2024-03-08T07:10:29;21.10;27.20
49184;DHT22;35021;49.214;12.270;2024-03-08T07:12:56;21.00;27.20
49184;DHT22;35021;49.214;12.270;2024-03-08T07:15:23;21.00;27.40
49184;DHT22;35021;49.214;12.270;2024-03-08T07:17:50;20.90;28.00
49184;DHT22;35021;49.214;12.270;2024-03-08T07:20:20;20.90;27.60
49184;DHT22;35021;49.214;12.270;2024-03-08T07:22:47;20.80;27.60
49184;DHT22;35021;49.214;12.270;2024-03-08T07:25:15;20.80;27.70
49184;DHT22;35021;49.214;12.270;2024-03-08T07:27:49;20.80;27.80
49184;DHT22;35021;49.214;12.270;2024-03-08T07:30:17;20.90;27.80
49184;DHT22;35021;49.214;12.270;2024-03-08T07:33:04;20.90;27.80
49184;DHT22;35021;49.214;12.270;2024-03-08T07:35:31;21.00;28.40
49184;DHT22;35021;49.214;12.270;2024-03-08T07:37:58;21.10;27.80
49184;DHT22;35021;49.214;12.270;2024-03-08T07:40:27;21.20;27.90
49184;DHT22;35021;49.214;12.270;2024-03-08T07:42:54;21.30;27.80
49184;DHT22;35021;49.214;12.270;2024-03-08T07:45:21;21.40;27.90
49184;DHT22;35021;49.214;12.270;2024-03-08T07:47:49;21.40;27.80
49184;DHT22;35021;49.214;12.270;2024-03-08T07:50:17;21.40;27.90
49184;DHT22;35021;49.214;12.270;2024-03-08T07:52:46;21.40;27.90
49184;DHT22;35021;49.214;12.270;2024-03-08T07:55:13;21.40;28.00
49184;DHT22;35021;49.214;12.270;2024-03-08T07:57:40;21.40;28.10
49184;DHT22;35021;49.214;12.270;2024-03-08T08:00:07;21.40;28.30
49184;DHT22;35021;49.214;12.270;2024-03-08T08:02:35;21.30;28.30
49184;DHT22;35021;49.214;12.270;2024-03-08T08:05:06;21.30;28.40
49184;DHT22;35021;49.214;12.270;2024-03-08T08:07:33;21.30;28.50
49184;DHT22;35021;49.214;12.270;2024-03-08T08:10:00;21.30;28.50
49184;DHT22;35021;49.214;12.270;2024-03-08T08:12:28;21.40;28.50
49184;DHT22;35021;49.214;12.270;2024-03-08T08:14:55;21.50;28.50
49184;DHT22;35021;49.214;12.270;2024-03-08T08:17:23;21.60;28.60
49184;DHT22;35021;49.214;12.270;2024-03-08T08:19:50;21.60;28.60
49184;DHT22;35021;49.214;12.270;2024-03-08T08:22:17;21.70;28.50
49184;DHT22;35021;49.214;12.270;2024-03-08T08:24:45;21.80;28.60
49184;DHT22;35021;49.214;12.270;2024-03-08T08:27:12;21.80;28.50
49184;DHT22;35021;49.214;12.270;2024-03-08T08:29:39;21.90;28.60
49184;DHT22;35021;49.214;12.270;2024-03-08T08:32:06;21.80;28.50
49184;DHT22;35021;49.214;12.270;2024-03-08T08:34:33;21.80;28.60
49184;DHT22;35021;49.214;12.270;2024-03-08T08:37:00;21.70;28.70
49184;DHT22;35021;49.214;12.270;2024-03-08T08:39:27;21.60;28.90
49184;DHT22;35021;49.214;12.270;2024-03-08T08:41:54;21.40;29.60
49184;DHT22;35021;49.214;12.270;2024-03-08T08:44:22;21.30;29.30
49184;DHT22;35021;49.214;12.270;2024-03-08T08:46:49;21.30;29.50
49184;DHT22;35021;49.214;12.270;2024-03-08T08:49:21;21.20;29.60
49184;DHT22;35021;49.214;12.270;2024-03-08T08:51:51;21.20;29.70
49184;DHT22;35021;49.214;12.270;2024-03-08T08:54:20;21.20;29.60
49184;DHT22;35021;49.214;12.270;2024-03-08T08:56:48;21.30;29.60
49184;DHT22;35021;49.214;12.270;2024-03-08T08:59:15;21.30;29.50
49184;DHT22;35021;49.214;12.270;2024-03-08T09:01:49;21.30;29.40
49184;DHT22;35021;49.214;12.270;2024-03-08T09:04:17;21.40;29.40
49184;DHT22;35021;49.214;12.270;2024-03-08T09:06:44;21.40;29.30
49184;DHT22;35021;49.214;12.270;2024-03-08T09:09:11;21.40;29.30
49184;DHT22;35021;49.214;12.270;2024-03-08T09:11:40;21.40;29.30
49184;DHT22;35021;49.214;12.270;2024-03-08T09:14:08;21.40;29.30
49184;DHT22;35021;49.214;12.270;2024-03-08T09:16:39;21.30;29.20
49184;DHT22;35021;49.214;12.270;2024-03-08T09:19:06;21.30;29.60
49184;DHT22;35021;49.214;12.270;2024-03-08T09:21:33;21.30;29.60
49184;DHT22;35021;49.214;12.270;2024-03-08T09:24:01;21.20;29.50
49184;DHT22;35021;49.214;12.270;2024-03-08T09:26:28;21.20;29.50
49184;DHT22;35021;49.214;12.270;2024-03-08T09:28:56;21.20;29.40
49184;DHT22;35021;49.214;12.270;2024-03-08T09:31:23;21.10;29.40
49184;DHT22;35021;49.214;12.270;2024-03-08T09:33:50;21.10;29.40
49184;DHT22;35021;49.214;12.270;2024-03-08T09:36:17;21.10;29.40
49184;DHT22;35021;49.214;12.270;2024-03-08T09:38:44;21.10;29.40
49184;DHT22;35021;49.214;12.270;2024-03-08T09:41:11;21.10;29.40
49184;DHT22;35021;49.214;12.270;2024-03-08T09:43:39;21.10;29.30
49184;DHT22;35021;49.214;12.270;2024-03-08T09:46:06;21.10;29.20
49184;DHT22;35021;49.214;12.270;2024-03-08T09:48:34;21.00;29.30
49184;DHT22;35021;49.214;12.270;2024-03-08T09:51:02;21.00;29.40
49184;DHT22;35021;49.214;12.270;2024-03-08T09:53:29;20.90;29.40
49184;DHT22;35021;49.214;12.270;2024-03-08T09:55:57;20.90;29.50
49184;DHT22;35021;49.214;12.270;2024-03-08T09:58:24;20.90;29.50
49184;DHT22;35021;49.214;12.270;2024-03-08T10:01:00;20.80;29.50
49184;DHT22;35021;49.214;12.270;2024-03-08T10:03:29;20.80;29.50
49184;DHT22;35021;49.214;12.270;2024-03-08T10:05:56;20.80;29.60
49184;DHT22;35021;49.214;12.270;2024-03-08T10:08:27;20.70;29.70
49184;DHT22;35021;49.214;12.270;2024-03-08T10:10:56;20.70;29.80
49184;DHT22;35021;49.214;12.270;2024-03-08T10:13:25;20.60;29.80
49184;DHT22;35021;49.214;12.270;2024-03-08T10:15:54;20.60;29.80
49184;DHT22;35021;49.214;12.270;2024-03-08T10:18:21;20.70;29.80
49184;DHT22;35021;49.214;12.270;2024-03-08T10:21:05;20.60;29.70
49184;DHT22;35021;49.214;12.270;2024-03-08T10:23:34;20.70;29.70
49184;DHT22;35021;49.214;12.270;2024-03-08T10:26:16;20.80;29.70
49184;DHT22;35021;49.214;12.270;2024-03-08T10:28:45;20.80;29.60
49184;DHT22;35021;49.214;12.270;2024-03-08T10:31:12;20.90;29.60
49184;DHT22;35021;49.214;12.270;2024-03-08T10:33:43;21.00;29.70
49184;DHT22;35021;49.214;12.270;2024-03-08T10:36:11;21.00;29.50
49184;DHT22;35021;49.214;12.270;2024-03-08T10:38:40;21.00;29.50
49184;DHT22;35021;49.214;12.270;2024-03-08T10:41:07;21.00;29.40
49184;DHT22;35021;49.214;12.270;2024-03-08T10:46:14;21.00;29.50
49184;DHT22;35021;49.214;12.270;2024-03-08T10:48:45;21.10;29.50
49184;DHT22;35021;49.214;12.270;2024-03-08T10:51:13;21.20;29.40
49184;DHT22;35021;49.214;12.270;2024-03-08T10:53:41;21.20;29.30
49184;DHT22;35021;49.214;12.270;2024-03-08T10:56:09;21.30;29.20
49184;DHT22;35021;49.214;12.270;2024-03-08T10:58:36;21.40;29.20
49184;DHT22;35021;49.214;12.270;2024-03-08T11:01:05;21.50;29.20
49184;DHT22;35021;49.214;12.270;2024-03-08T11:06:07;21.60;29.00
49184;DHT22;35021;49.214;12.270;2024-03-08T11:08:36;21.60;28.90
49184;DHT22;35021;49.214;12.270;2024-03-08T11:11:03;21.70;28.80
49184;DHT22;35021;49.214;12.270;2024-03-08T11:13:41;21.70;28.80
49184;DHT22;35021;49.214;12.270;2024-03-08T11:16:10;21.80;28.80
49184;DHT22;35021;49.214;12.270;2024-03-08T11:18:37;21.90;28.70
49184;DHT22;35021;49.214;12.270;2024-03-08T11:21:04;22.00;28.80
49184;DHT22;35021;49.214;12.270;2024-03-08T11:23:39;22.10;28.70
49184;DHT22;35021;49.214;12.270;2024-03-08T11:26:23;22.20;28.60
49184;DHT22;35021;49.214;12.270;2024-03-08T11:28:50;22.20;28.50
49184;DHT22;35021;49.214;12.270;2024-03-08T11:31:23;22.30;28.30
49184;DHT22;35021;49.214;12.270;2024-03-08T11:33:51;22.30;28.40
49184;DHT22;35021;49.214;12.270;2024-03-08T11:36:20;22.40;28.40
49184;DHT22;35021;49.214;12.270;2024-03-08T11:38:49;22.40;28.40
49184;DHT22;35021;49.214;12.270;2024-03-08T11:41:19;22.60;28.50
49184;DHT22;35021;49.214;12.270;2024-03-08T11:43:48;22.60;28.30
49184;DHT22;35021;49.214;12.270;2024-03-08T11:46:15;22.60;28.30
49184;DHT22;35021;49.214;12.270;2024-03-08T11:48:43;22.60;28.30
49184;DHT22;35021;49.214;12.270;2024-03-08T11:51:11;22.70;28.40
49184;DHT22;35021;49.214;12.270;2024-03-08T11:53:38;22.60;28.30
49184;DHT22;35021;49.214;12.270;2024-03-08T11:56:12;22.60;28.20
49184;DHT22;35021;49.214;12.270;2024-03-08T11:58:40;22.50;28.20
49184;DHT22;35021;49.214;12.270;2024-03-08T12:01:08;22.40;28.10
49184;DHT22;35021;49.214;12.270;2024-03-08T12:03:42;22.30;28.10
49184;DHT22;35021;49.214;12.270;2024-03-08T12:06:10;22.20;28.20
49184;DHT22;35021;49.214;12.270;2024-03-08T12:08:37;22.10;28.30
49184;DHT22;35021;49.214;12.270;2024-03-08T12:11:04;22.10;28.40
49184;DHT22;35021;49.214;12.270;2024-03-08T12:13:32;22.00;28.50
49184;DHT22;35021;49.214;12.270;2024-03-08T12:16:04;22.00;28.60
49184;DHT22;35021;49.214;12.270;2024-03-08T12:18:37;21.90;28.70
49184;DHT22;35021;49.214;12.270;2024-03-08T12:21:08;21.90;28.80
49184;DHT22;35021;49.214;12.270;2024-03-08T12:23:35;21.80;28.70
49184;DHT22;35021;49.214;12.270;2024-03-08T12:26:16;21.70;28.70
49184;DHT22;35021;49.214;12.270;2024-03-08T12:28:43;21.60;28.80
49184;DHT22;35021;49.214;12.270;2024-03-08T12:31:16;21.50;28.90
49184;DHT22;35021;49.214;12.270;2024-03-08T12:33:51;21.50;29.10
49184;DHT22;35021;49.214;12.270;2024-03-08T12:36:23;21.40;29.20
49184;DHT22;35021;49.214;12.270;2024-03-08T12:38:49;21.40;29.10
49184;DHT22;35021;49.214;12.270;2024-03-08T12:41:17;21.50;29.10
49184;DHT22;35021;49.214;12.270;2024-03-08T12:43:45;21.50;29.00
49184;DHT22;35021;49.214;12.270;2024-03-08T12:46:19;21.50;28.90
49184;DHT22;35021;49.214;12.270;2024-03-08T12:48:49;21.60;28.80
49184;DHT22;35021;49.214;12.270;2024-03-08T12:51:16;21.70;28.60
49184;DHT22;35021;49.214;12.270;2024-03-08T12:53:45;21.80;28.60
49184;DHT22;35021;49.214;12.270;2024-03-08T12:56:13;22.00;28.60
49184;DHT22;35021;49.214;12.270;2024-03-08T12:58:41;22.10;28.70
49184;DHT22;35021;49.214;12.270;2024-03-08T13:01:09;22.20;28.60
49184;DHT22;35021;49.214;12.270;2024-03-08T13:03:37;22.30;28.50
49184;DHT22;35021;49.214;12.270;2024-03-08T13:06:04;22.40;28.50
49184;DHT22;35021;49.214;12.270;2024-03-08T13:08:37;22.40;28.40
49184;DHT22;35021;49.214;12.270;2024-03-08T13:11:07;22.40;29.00
49184;DHT22;35021;49.214;12.270;2024-03-08T13:13:35;22.30;28.50
49184;DHT22;35021;49.214;12.270;2024-03-08T13:16:03;22.30;28.50
49184;DHT22;35021;49.214;12.270;2024-03-08T13:18:30;22.20;28.50
49184;DHT22;35021;49.214;12.270;2024-03-08T13:20:57;22.10;28.60
49184;DHT22;35021;49.214;12.270;2024-03-08T13:23:24;22.00;28.70
49184;DHT22;35021;49.214;12.270;2024-03-08T13:25:51;21.90;28.80
49184;DHT22;35021;49.214;12.270;2024-03-08T13:28:18;21.80;28.90
49184;DHT22;35021;49.214;12.270;2024-03-08T13:30:50;21.70;29.00
49184;DHT22;35021;49.214;12.270;2024-03-08T13:33:23;21.60;28.90
49184;DHT22;35021;49.214;12.270;2024-03-08T13:35:50;21.60;29.00
49184;DHT22;35021;49.214;12.270;2024-03-08T13:38:17;21.50;29.10
49184;DHT22;35021;49.214;12.270;2024-03-08T13:40:47;21.40;29.10
49184;DHT22;35021;49.214;12.270;2024-03-08T13:43:15;21.40;29.20
49184;DHT22;35021;49.214;12.270;2024-03-08T13:45:43;21.30;29.30
49184;DHT22;35021;49.214;12.270;2024-03-08T13:48:10;21.20;29.40
49184;DHT22;35021;49.214;12.270;2024-03-08T13:50:39;21.20;29.50
49184;DHT22;35021;49.214;12.270;2024-03-08T13:53:06;21.10;29.50
49184;DHT22;35021;49.214;12.270;2024-03-08T13:55:34;21.00;29.60
49184;DHT22;35021;49.214;12.270;2024-03-08T13:58:01;21.00;29.70
49184;DHT22;35021;49.214;12.270;2024-03-08T14:00:29;20.90;29.70
49184;DHT22;35021;49.214;12.270;2024-03-08T14:03:00;20.90;29.70
49184;DHT22;35021;49.214;12.270;2024-03-08T14:05:27;20.80;29.70
49184;DHT22;35021;49.214;12.270;2024-03-08T14:07:54;20.80;29.80
49184;DHT22;35021;49.214;12.270;2024-03-08T14:10:22;20.80;29.70
49184;DHT22;35021;49.214;12.270;2024-03-08T14:12:50;20.90;29.70
49184;DHT22;35021;49.214;12.270;2024-03-08T14:15:18;20.90;29.70
49184;DHT22;35021;49.214;12.270;2024-03-08T14:17:45;21.00;29.80
49184;DHT22;35021;49.214;12.270;2024-03-08T14:20:14;21.10;29.60
49184;DHT22;35021;49.214;12.270;2024-03-08T14:22:41;21.20;29.50
49184;DHT22;35021;49.214;12.270;2024-03-08T14:25:08;21.30;29.40
49184;DHT22;35021;49.214;12.270;2024-03-08T14:27:45;21.50;29.30
49184;DHT22;35021;49.214;12.270;2024-03-08T14:30:12;21.60;29.30
49184;DHT22;35021;49.214;12.270;2024-03-08T14:32:40;21.70;29.10
49184;DHT22;35021;49.214;12.270;2024-03-08T14:35:08;21.80;29.00
49184;DHT22;35021;49.214;12.270;2024-03-08T14:37:38;21.90;28.90
49184;DHT22;35021;49.214;12.270;2024-03-08T14:40:05;22.00;28.80
49184;DHT22;35021;49.214;12.270;2024-03-08T14:42:35;22.10;28.70
49184;DHT22;35021;49.214;12.270;2024-03-08T14:45:02;22.20;28.60
49184;DHT22;35021;49.214;12.270;2024-03-08T14:47:29;22.20;28.50
49184;DHT22;35021;49.214;12.270;2024-03-08T14:49:56;22.30;28.40
49184;DHT22;35021;49.214;12.270;2024-03-08T14:52:23;22.40;28.40
49184;DHT22;35021;49.214;12.270;2024-03-08T14:54:54;22.40;28.40
49184;DHT22;35021;49.214;12.270;2024-03-08T14:57:22;22.40;28.40
49184;DHT22;35021;49.214;12.270;2024-03-08T14:59:49;22.30;28.30
49184;DHT22;35021;49.214;12.270;2024-03-08T15:02:17;22.30;28.30
49184;DHT22;35021;49.214;12.270;2024-03-08T15:04:46;22.20;28.20
49184;DHT22;35021;49.214;12.270;2024-03-08T15:07:19;22.20;28.30
49184;DHT22;35021;49.214;12.270;2024-03-08T15:09:46;22.10;28.30
49184;DHT22;35021;49.214;12.270;2024-03-08T15:12:13;22.10;28.30
49184;DHT22;35021;49.214;12.270;2024-03-08T15:14:42;22.00;28.20
49184;DHT22;35021;49.214;12.270;2024-03-08T15:17:10;21.90;28.20
49184;DHT22;35021;49.214;12.270;2024-03-08T15:19:44;21.80;28.20
49184;DHT22;35021;49.214;12.270;2024-03-08T15:22:11;21.70;28.30
49184;DHT22;35021;49.214;12.270;2024-03-08T15:24:38;21.70;28.50
49184;DHT22;35021;49.214;12.270;2024-03-08T15:27:05;21.60;28.60